Time;durP1;ratioP1;P1;durP2;ratioP2;P2;SDS_P1;SDS_P2;PMS_P1;PMS_P2;Temp;Humidity;BMP_temperature;BMP_pressure;BME280_temperature;BME280_humidity;BME280_pressure;Samples;Min_cycle;Max_cycle;Signal;HPM_P1;HPM_P2
2023/10/03 00:00:22;;;;;;;19.05;9.63;;;;;;;17.95;100.00;100431.00;692001;28;1256;-61
2023/10/03 00:00:44;;;;;;;19.90;9.10;;;;;;;17.94;100.00;100429.25;692544;28;1473;-60
2023/10/03 00:01:05;;;;;;;19.20;9.27;;;;;;;17.93;100.00;100432.84;687424;28;4426;-60
2023/10/03 00:01:25;;;;;;;18.92;9.50;;;;;;;17.92;100.00;100430.25;688919;28;1472;-60
2023/10/03 00:01:45;;;;;;;19.83;8.93;;;;;;;17.93;100.00;100427.56;687852;28;1407;-61
2023/10/03 00:02:06;;;;;;;20.17;9.63;;;;;;;17.96;100.00;100423.94;688237;28;1362;-61
2023/10/03 00:02:27;;;;;;;18.10;9.48;;;;;;;17.98;100.00;100424.72;688391;28;1101;-62
2023/10/03 00:02:50;;;;;;;19.45;9.38;;;;;;;18.00;100.00;100428.19;689747;28;1254;-62
2023/10/03 00:03:13;;;;;;;20.52;9.38;;;;;;;18.04;100.00;100427.09;691640;28;1267;-62
2023/10/03 00:03:33;;;;;;;20.15;9.55;;;;;;;18.06;100.00;100427.06;692592;28;1219;-61
2023/10/03 00:03:53;;;;;;;19.53;9.60;;;;;;;18.11;100.00;100425.09;692003;28;4289;-62
2023/10/03 00:04:14;;;;;;;18.20;9.10;;;;;;;18.15;100.00;100417.00;691198;28;2346;-61
2023/10/03 00:04:34;;;;;;;17.63;8.93;;;;;;;18.12;100.00;100417.09;692966;28;1389;-60
2023/10/03 00:04:55;;;;;;;16.30;8.68;;;;;;;18.08;100.00;100426.06;691111;28;1186;-61
2023/10/03 00:05:21;;;;;;;17.80;9.13;;;;;;;18.04;100.00;100425.34;691330;28;1473;-61
2023/10/03 00:05:45;;;;;;;18.83;9.45;;;;;;;18.02;100.00;100424.53;692363;28;1350;-61
2023/10/03 00:06:05;;;;;;;18.00;9.00;;;;;;;18.02;100.00;100421.88;690975;28;1333;-61
2023/10/03 00:06:25;;;;;;;17.00;8.90;;;;;;;18.01;100.00;100416.66;691216;28;2131;-61
2023/10/03 00:06:46;;;;;;;17.57;9.23;;;;;;;17.99;100.00;100416.72;692204;28;1287;-62
2023/10/03 00:07:06;;;;;;;17.60;8.87;;;;;;;18.01;100.00;100416.66;691055;28;4332;-61
2023/10/03 00:07:27;;;;;;;18.70;9.33;;;;;;;18.03;100.00;100412.19;690036;28;2318;-63
2023/10/03 00:07:54;;;;;;;17.87;9.07;;;;;;;18.06;100.00;100414.69;692444;28;1220;-60
2023/10/03 00:08:14;;;;;;;18.70;9.73;;;;;;;18.11;100.00;100409.22;690883;28;2005;-63
2023/10/03 00:08:34;;;;;;;18.90;9.50;;;;;;;18.13;100.00;100412.69;692879;28;1424;-60
2023/10/03 00:08:55;;;;;;;18.70;9.43;;;;;;;18.15;100.00;100405.53;692370;28;1306;-61
2023/10/03 00:09:16;;;;;;;19.77;9.98;;;;;;;18.14;100.00;100411.75;690948;28;2595;-61
2023/10/03 00:09:37;;;;;;;19.08;9.43;;;;;;;18.12;100.00;100414.44;691820;28;1522;-60
2023/10/03 00:09:57;;;;;;;20.20;9.37;;;;;;;18.13;100.00;100412.69;691089;28;4315;-60
2023/10/03 00:10:19;;;;;;;19.52;9.27;;;;;;;18.17;100.00;100415.13;690505;28;1874;-60
2023/10/03 00:10:39;;;;;;;18.40;9.45;;;;;;;18.16;100.00;100410.75;692281;28;1259;-61
2023/10/03 00:11:00;;;;;;;20.08;9.60;;;;;;;18.19;100.00;100413.28;692488;28;1413;-60
2023/10/03 00:11:22;;;;;;;19.60;9.33;;;;;;;18.19;100.00;100412.41;691214;28;1382;-60
2023/10/03 00:11:42;;;;;;;17.48;9.10;;;;;;;18.21;100.00;100405.28;692543;28;1615;-62
2023/10/03 00:12:03;;;;;;;17.27;9.20;;;;;;;18.21;100.00;100410.59;692845;28;1535;-61
2023/10/03 00:12:23;;;;;;;16.30;8.52;;;;;;;18.19;100.00;100401.84;690783;28;1440;-60
2023/10/03 00:12:48;;;;;;;18.07;8.93;;;;;;;18.21;100.00;100406.16;692178;28;1366;-62
2023/10/03 00:13:11;;;;;;;18.63;9.57;;;;;;;18.21;100.00;100403.50;691578;28;4287;-61
2023/10/03 00:13:31;;;;;;;16.88;8.93;;;;;;;18.19;100.00;100396.53;692102;28;2454;-65
2023/10/03 00:13:52;;;;;;;18.30;8.97;;;;;;;18.13;100.00;100408.25;692683;28;1267;-61
2023/10/03 00:14:12;;;;;;;18.65;9.25;;;;;;;18.14;100.00;100406.47;690866;28;1208;-61
2023/10/03 00:14:32;;;;;;;17.70;8.90;;;;;;;18.13;100.00;100399.44;691937;28;1963;-61
2023/10/03 00:14:53;;;;;;;17.97;9.20;;;;;;;18.11;100.00;100410.09;691852;28;1302;-61
2023/10/03 00:15:24;;;;;;;18.77;9.57;;;;;;;18.09;100.00;100405.78;690287;28;1773;-61
2023/10/03 00:15:45;;;;;;;19.00;9.35;;;;;;;18.09;100.00;100398.69;690674;28;2928;-61
2023/10/03 00:16:06;;;;;;;19.85;9.60;;;;;;;18.09;100.00;100400.50;691870;28;4354;-61
2023/10/03 00:16:28;;;;;;;17.15;9.35;;;;;;;18.08;100.00;100401.41;690555;28;3519;-62
2023/10/03 00:16:50;;;;;;;18.45;9.18;;;;;;;18.07;100.00;100402.31;691742;28;1239;-60
2023/10/03 00:17:10;;;;;;;18.13;9.35;;;;;;;18.14;100.00;100403.81;689703;28;1307;-61
2023/10/03 00:17:30;;;;;;;18.13;9.27;;;;;;;18.20;100.00;100403.56;687640;28;1832;-61
2023/10/03 00:17:55;;;;;;;19.15;9.30;;;;;;;18.20;100.00;100398.28;689254;28;1248;-61
2023/10/03 00:18:16;;;;;;;18.70;9.48;;;;;;;18.18;100.00;100394.84;687235;28;1787;-61
2023/10/03 00:18:36;;;;;;;17.92;9.18;;;;;;;18.15;100.00;100397.59;689712;28;1518;-61
2023/10/03 00:18:56;;;;;;;17.10;9.10;;;;;;;18.13;100.00;100396.81;689950;28;4305;-60
2023/10/03 00:19:17;;;;;;;17.65;9.00;;;;;;;18.15;100.00;100395.81;691025;28;1275;-61
2023/10/03 00:19:37;;;;;;;18.43;8.87;;;;;;;18.15;100.00;100395.81;692097;28;1255;-62
2023/10/03 00:19:57;;;;;;;18.47;9.40;;;;;;;18.13;100.00;100391.50;691953;28;1294;-62
2023/10/03 00:20:18;;;;;;;18.20;9.67;;;;;;;18.13;100.00;100392.38;690932;28;2118;-62
2023/10/03 00:20:39;;;;;;;19.42;9.55;;;;;;;18.11;100.00;100390.69;688635;28;1429;-61
2023/10/03 00:21:00;;;;;;;18.55;9.40;;;;;;;18.11;100.00;100396.88;688292;28;1442;-63
2023/10/03 00:21:21;;;;;;;17.10;9.10;;;;;;;18.06;100.00;100392.69;687941;28;1481;-60
2023/10/03 00:21:41;;;;;;;17.60;9.13;;;;;;;18.04;100.00;100385.66;688500;28;1473;-62
2023/10/03 00:22:01;;;;;;;17.80;8.98;;;;;;;18.06;100.00;100390.91;688126;28;4279;-61
2023/10/03 00:22:22;;;;;;;17.27;9.37;;;;;;;18.09;100.00;100389.91;688426;28;1543;-62
2023/10/03 00:22:42;;;;;;;18.30;9.83;;;;;;;18.11;100.00;100388.94;692658;28;1595;-60
2023/10/03 00:23:04;;;;;;;18.23;9.35;;;;;;;18.18;100.00;100389.56;691533;28;1540;-62
2023/10/03 00:23:25;;;;;;;18.08;9.43;;;;;;;18.27;100.00;100394.44;690951;28;1836;-61
2023/10/03 00:23:46;;;;;;;18.45;9.55;;;;;;;18.23;100.00;100392.00;689200;28;1299;-60
2023/10/03 00:24:06;;;;;;;19.93;9.90;;;;;;;18.27;100.00;100385.66;689254;28;1235;-62
2023/10/03 00:24:27;;;;;;;17.58;9.55;;;;;;;18.26;100.00;100394.50;687756;28;1112;-61
2023/10/03 00:24:47;;;;;;;18.63;9.43;;;;;;;18.26;100.00;100389.22;689014;28;1176;-61
2023/10/03 00:25:11;;;;;;;17.83;9.03;;;;;;;18.26;100.00;100390.06;688638;28;4417;-63
2023/10/03 00:25:32;;;;;;;18.77;9.48;;;;;;;18.26;100.00;100394.50;688689;28;1602;-61
2023/10/03 00:25:56;;;;;;;19.67;9.77;;;;;;;18.22;100.00;100385.84;692474;28;1362;-61
2023/10/03 00:26:17;;;;;;;17.70;9.60;;;;;;;18.16;100.00;100394.88;690845;28;1890;-61
2023/10/03 00:26:40;;;;;;;18.13;8.57;;;;;;;18.15;100.00;100379.94;693234;28;1342;-61
2023/10/03 00:27:04;;;;;;;18.23;9.10;;;;;;;18.18;100.00;100394.84;692356;28;1282;-61
2023/10/03 00:27:25;;;;;;;21.00;10.18;;;;;;;18.21;100.00;100389.41;686883;28;1765;-61
2023/10/03 00:27:55;;;;;;;18.63;10.00;;;;;;;18.21;100.00;100381.47;687580;28;1599;-62
2023/10/03 00:28:15;;;;;;;16.80;8.82;;;;;;;18.24;100.00;100386.63;686497;28;5077;-61
2023/10/03 00:28:36;;;;;;;15.47;8.40;;;;;;;18.32;100.00;100387.19;687764;28;1296;-62
2023/10/03 00:28:56;;;;;;;17.95;9.25;;;;;;;18.26;100.00;100384.78;687952;28;1336;-61
2023/10/03 00:29:23;;;;;;;17.40;9.27;;;;;;;18.25;100.00;100380.44;686591;28;2210;-61
2023/10/03 00:29:43;;;;;;;18.52;8.95;;;;;;;18.24;100.00;100378.72;688113;28;1248;-61
2023/10/03 00:30:06;;;;;;;19.23;9.55;;;;;;;18.22;100.00;100375.28;686964;28;1458;-62
2023/10/03 00:30:29;;;;;;;20.20;9.45;;;;;;;18.21;100.00;100384.13;687650;28;1383;-61
2023/10/03 00:30:51;;;;;;;19.27;9.57;;;;;;;18.21;100.00;100369.09;688414;28;1258;-61
2023/10/03 00:31:13;;;;;;;18.85;8.98;;;;;;;18.19;100.00;100375.38;688717;28;4799;-60
2023/10/03 00:31:34;;;;;;;18.30;8.60;;;;;;;18.17;100.00;100383.38;690042;28;1320;-63
2023/10/03 00:31:54;;;;;;;18.80;9.07;;;;;;;18.15;100.00;100368.50;691856;28;1306;-61
2023/10/03 00:32:15;;;;;;;18.15;9.23;;;;;;;18.17;100.00;100372.81;691105;28;1778;-60
2023/10/03 00:32:36;;;;;;;18.17;9.47;;;;;;;18.21;100.00;100374.41;688867;28;1382;-61
2023/10/03 00:32:57;;;;;;;19.08;9.48;;;;;;;18.24;100.00;100367.28;689323;28;1390;-61
2023/10/03 00:33:23;;;;;;;18.70;9.48;;;;;;;18.27;100.00;100369.78;684208;28;2294;-62
2023/10/03 00:33:44;;;;;;;18.60;9.00;;;;;;;18.29;100.00;100371.44;683712;28;1304;-61
2023/10/03 00:34:05;;;;;;;18.30;9.00;;;;;;;18.37;100.00;100374.63;683035;28;4445;-62
2023/10/03 00:34:26;;;;;;;18.98;8.85;;;;;;;18.38;100.00;100368.41;683174;28;2214;-61
2023/10/03 00:34:46;;;;;;;19.50;9.60;;;;;;;18.41;100.00;100366.56;687036;28;2015;-61
2023/10/03 00:35:08;;;;;;;20.63;9.73;;;;;;;18.41;100.00;100374.50;687194;28;1149;-62
2023/10/03 00:35:30;;;;;;;19.17;9.35;;;;;;;18.51;100.00;100365.22;684906;28;1783;-62
2023/10/03 00:35:53;;;;;;;19.40;9.65;;;;;;;18.59;100.00;100365.75;688594;28;2114;-61
2023/10/03 00:36:16;;;;;;;18.98;9.75;;;;;;;18.58;100.00;100372.00;684876;28;2350;-61
2023/10/03 00:36:37;;;;;;;18.50;9.40;;;;;;;18.61;100.00;100369.22;686655;28;1375;-62
2023/10/03 00:36:57;;;;;;;17.97;9.07;;;;;;;18.61;100.00;100368.34;686117;28;4720;-62
2023/10/03 00:37:18;;;;;;;19.20;9.15;;;;;;;18.57;100.00;100365.00;685321;28;2705;-61
2023/10/03 00:37:39;;;;;;;18.30;8.90;;;;;;;18.53;100.00;100368.69;687024;28;1375;-61
2023/10/03 00:38:00;;;;;;;17.33;9.00;;;;;;;18.51;100.00;100367.88;686404;28;1430;-62
2023/10/03 00:38:22;;;;;;;18.52;9.75;;;;;;;18.47;100.00;100368.94;682846;28;1430;-61
2023/10/03 00:38:43;;;;;;;19.27;9.52;;;;;;;18.43;100.00;100367.34;686536;28;1434;-62
2023/10/03 00:39:06;;;;;;;18.67;9.32;;;;;;;18.36;100.00;100367.63;686836;28;5256;-61
2023/10/03 00:39:27;;;;;;;18.48;9.48;;;;;;;18.35;100.00;100373.81;684741;28;1435;-62
2023/10/03 00:39:48;;;;;;;18.77;9.38;;;;;;;18.34;100.00;100373.88;684728;28;1257;-61
2023/10/03 00:40:16;;;;;;;18.53;9.30;;;;;;;18.31;100.00;100368.72;686187;28;4362;-62
2023/10/03 00:40:38;;;;;;;18.63;9.30;;;;;;;18.35;100.00;100365.03;688401;28;1303;-61
2023/10/03 00:40:58;;;;;;;19.85;9.55;;;;;;;18.38;100.00;100362.25;688426;28;1421;-62
2023/10/03 00:41:19;;;;;;;18.40;9.55;;;;;;;18.37;100.00;100369.34;688855;28;1553;-61
2023/10/03 00:41:40;;;;;;;17.95;9.10;;;;;;;18.40;100.00;100367.47;687950;28;1276;-62
2023/10/03 00:42:03;;;;;;;17.38;9.52;;;;;;;18.40;100.00;100371.00;686485;28;1366;-61
2023/10/03 00:42:25;;;;;;;18.58;9.68;;;;;;;18.43;100.00;100362.03;682557;28;2015;-61
2023/10/03 00:42:47;;;;;;;20.27;9.87;;;;;;;18.44;100.00;100367.31;682544;28;1260;-60
2023/10/03 00:43:07;;;;;;;18.83;9.25;;;;;;;18.42;100.00;100360.34;683256;28;4536;-61
2023/10/03 00:43:28;;;;;;;17.30;8.33;;;;;;;18.39;100.00;100369.28;684077;28;2332;-60
2023/10/03 00:44:00;;;;;;;18.17;8.93;;;;;;;18.41;100.00;100369.22;686854;28;1283;-60
2023/10/03 00:44:21;;;;;;;18.67;9.20;;;;;;;18.38;100.00;100373.69;685843;28;1335;-63
2023/10/03 00:44:44;;;;;;;18.40;9.50;;;;;;;18.38;100.00;100364.91;688286;28;1422;-61
2023/10/03 00:45:08;;;;;;;18.83;9.20;;;;;;;18.45;100.00;100365.50;688204;28;1208;-62
2023/10/03 00:45:32;;;;;;;19.02;8.98;;;;;;;18.43;100.00;100367.34;685442;28;1754;-62
2023/10/03 00:45:52;;;;;;;20.35;9.35;;;;;;;18.37;100.00;100374.63;685778;28;4560;-60
2023/10/03 00:46:12;;;;;;;19.83;9.43;;;;;;;18.35;100.00;100363.25;688264;28;1271;-61
2023/10/03 00:46:33;;;;;;;18.52;9.38;;;;;;;18.34;100.00;100372.09;686629;28;2172;-63
2023/10/03 00:46:53;;;;;;;20.90;9.73;;;;;;;18.32;100.00;100366.03;689904;28;1409;-60
2023/10/03 00:47:14;;;;;;;19.30;9.43;;;;;;;18.29;100.00;100368.81;687860;28;2200;-63
2023/10/03 00:47:35;;;;;;;19.23;9.55;;;;;;;18.33;100.00;100373.03;689174;28;1554;-61
2023/10/03 00:48:00;;;;;;;18.27;9.43;;;;;;;18.35;100.00;100373.81;686869;28;1276;-61
2023/10/03 00:48:21;;;;;;;19.17;9.60;;;;;;;18.29;100.00;100368.81;686421;28;2244;-61
2023/10/03 00:48:42;;;;;;;18.90;9.43;;;;;;;18.27;100.00;100368.00;685855;28;2250;-60
2023/10/03 00:49:08;;;;;;;18.20;9.70;;;;;;;18.26;100.00;100368.06;683743;28;4541;-61
2023/10/03 00:49:31;;;;;;;17.92;9.07;;;;;;;18.27;100.00;100362.69;684317;28;1741;-61
2023/10/03 00:49:51;;;;;;;18.52;9.38;;;;;;;18.34;100.00;100364.16;688717;28;1335;-61
2023/10/03 00:50:12;;;;;;;17.77;8.95;;;;;;;18.51;100.00;100357.28;689731;28;1322;-61
2023/10/03 00:50:34;;;;;;;18.70;8.95;;;;;;;18.57;100.00;100358.81;688038;28;1846;-60
2023/10/03 00:50:55;;;;;;;18.80;9.35;;;;;;;18.51;100.00;100355.53;688996;28;1385;-61
2023/10/03 00:51:20;;;;;;;19.75;9.15;;;;;;;18.47;100.00;100358.34;688446;28;2049;-61
2023/10/03 00:51:40;;;;;;;20.25;9.32;;;;;;;18.44;100.00;100358.47;688834;28;1346;-60
2023/10/03 00:52:05;;;;;;;20.23;9.57;;;;;;;18.43;100.00;100355.00;690353;28;4477;-62
2023/10/03 00:52:26;;;;;;;19.55;9.80;;;;;;;18.41;100.00;100351.53;687672;28;1947;-62
2023/10/03 00:53:10;;;;;;;19.58;9.70;;;;;;;18.37;100.00;100353.47;689536;28;1378;-62
2023/10/03 00:53:32;;;;;;;19.45;9.57;;;;;;;18.36;100.00;100354.38;688085;28;1830;-63
2023/10/03 00:53:56;;;;;;;19.55;9.80;;;;;;;18.38;100.00;100349.88;688836;28;1253;-62
2023/10/03 00:54:17;;;;;;;16.90;8.70;;;;;;;18.38;100.00;100344.56;689363;28;2818;-61
2023/10/03 00:54:38;;;;;;;18.10;8.73;;;;;;;18.41;100.00;100348.03;692084;28;1979;-61
2023/10/03 00:55:00;;;;;;;19.08;9.30;;;;;;;18.38;100.00;100349.88;691392;28;4552;-61
2023/10/03 00:55:26;;;;;;;18.17;9.50;;;;;;;18.36;100.00;100350.88;689265;28;2513;-61
2023/10/03 00:55:47;;;;;;;20.98;8.95;;;;;;;18.32;100.00;100349.28;686590;28;1227;-61
2023/10/03 00:56:09;;;;;;;18.63;9.27;;;;;;;18.29;100.00;100352.94;687453;28;1255;-62
2023/10/03 00:56:30;;;;;;;17.35;8.93;;;;;;;18.36;100.00;100342.94;686051;28;2274;-62
2023/10/03 00:56:51;;;;;;;17.33;9.23;;;;;;;18.35;100.00;100344.72;687805;28;1513;-61
2023/10/03 00:57:11;;;;;;;18.88;9.75;;;;;;;18.33;100.00;100341.28;688948;28;1228;-64
2023/10/03 00:57:32;;;;;;;19.60;9.90;;;;;;;18.33;100.00;100346.56;688469;28;1709;-62
2023/10/03 00:58:06;;;;;;;19.20;9.02;;;;;;;18.28;100.00;100345.91;691985;28;4717;-61
2023/10/03 00:58:32;;;;;;;19.13;9.07;;;;;;;18.31;100.00;100337.84;687018;28;1741;-62
2023/10/03 00:58:53;;;;;;;18.67;9.15;;;;;;;18.33;100.00;100351.00;687754;28;1223;-63
2023/10/03 00:59:13;;;;;;;19.60;9.57;;;;;;;18.29;100.00;100347.63;688405;28;1394;-62
2023/10/03 00:59:35;;;;;;;17.55;8.95;;;;;;;18.26;100.00;100347.75;686048;28;1768;-61
2023/10/03 00:59:58;;;;;;;19.30;9.70;;;;;;;18.26;100.00;100345.09;685574;28;1276;-63
2023/10/03 01:00:18;;;;;;;18.63;9.18;;;;;;;18.24;100.00;100346.97;681137;28;2443;-61
2023/10/03 01:00:44;;;;;;;20.20;9.83;;;;;;;18.29;100.00;100345.00;682811;28;1367;-61
2023/10/03 01:01:04;;;;;;;19.10;9.60;;;;;;;18.29;100.00;100347.63;681604;28;4508;-62
2023/10/03 01:01:33;;;;;;;16.97;9.00;;;;;;;18.36;100.00;100346.44;684005;28;1715;-62
2023/10/03 01:02:00;;;;;;;19.65;9.40;;;;;;;18.46;100.00;100331.03;686011;28;2123;-62
2023/10/03 01:02:21;;;;;;;17.80;8.93;;;;;;;18.47;100.00;100340.69;687763;28;1366;-62
2023/10/03 01:02:50;;;;;;;18.35;9.45;;;;;;;18.42;100.00;100344.47;689235;28;1382;-60
2023/10/03 01:03:31;;;;;;;17.98;9.15;;;;;;;18.40;100.00;100335.72;687787;28;1314;-62
2023/10/03 01:03:55;;;;;;;19.38;9.30;;;;;;;18.38;100.00;100341.94;691845;28;4556;-62
2023/10/03 01:04:19;;;;;;;19.20;9.27;;;;;;;18.47;100.00;100331.88;688730;28;1200;-62
2023/10/03 01:04:40;;;;;;;18.70;9.50;;;;;;;18.54;100.00;100339.50;689596;28;1247;-61
2023/10/03 01:05:03;;;;;;;17.23;8.93;;;;;;;18.65;100.00;100335.50;689488;28;845;-62
2023/10/03 01:05:23;;;;;;;17.58;9.20;;;;;;;18.70;100.00;100336.19;686878;28;1414;-62
2023/10/03 01:05:44;;;;;;;18.13;8.90;;;;;;;18.69;100.00;100332.69;685315;28;1213;-61
2023/10/03 01:06:10;;;;;;;17.97;8.77;;;;;;;18.67;100.00;100331.88;686847;28;1255;-62
2023/10/03 01:06:31;;;;;;;18.38;9.15;;;;;;;18.65;100.00;100331.09;683749;28;1765;-62
2023/10/03 01:06:52;;;;;;;18.65;9.15;;;;;;;18.61;100.00;100329.50;684311;28;4358;-62
2023/10/03 01:07:12;;;;;;;18.13;9.60;;;;;;;18.63;100.00;100332.94;685199;28;1295;-63
2023/10/03 01:07:33;;;;;;;18.55;9.48;;;;;;;18.62;100.00;100335.66;682233;28;1497;-62
2023/10/03 01:07:54;;;;;;;18.27;9.15;;;;;;;18.67;100.00;100329.22;681941;28;1327;-61
2023/10/03 01:08:14;;;;;;;18.03;9.10;;;;;;;18.71;100.00;100341.41;683547;28;1513;-63
2023/10/03 01:08:39;;;;;;;17.88;9.02;;;;;;;18.76;100.00;100337.69;682943;28;1814;-61
2023/10/03 01:09:00;;;;;;;17.30;8.70;;;;;;;18.79;100.00;100338.44;683915;28;1236;-61
2023/10/03 01:09:25;;;;;;;18.52;9.20;;;;;;;18.74;100.00;100337.78;683863;28;2251;-62
2023/10/03 01:09:45;;;;;;;17.55;9.35;;;;;;;18.72;100.00;100337.84;687466;28;1149;-62
2023/10/03 01:10:07;;;;;;;17.67;9.17;;;;;;;18.69;100.00;100340.63;688690;28;4400;-66
2023/10/03 01:10:27;;;;;;;17.67;9.00;;;;;;;18.67;100.00;100333.69;689942;28;1670;-62
2023/10/03 01:10:48;;;;;;;18.33;9.30;;;;;;;18.68;100.00;100336.25;692734;28;1286;-62
2023/10/03 01:11:16;;;;;;;18.93;9.40;;;;;;;18.67;100.00;100337.19;692109;28;1302;-62
2023/10/03 01:11:36;;;;;;;19.13;8.82;;;;;;;18.63;100.00;100332.94;687637;28;1793;-62
2023/10/03 01:11:56;;;;;;;18.05;8.63;;;;;;;18.60;100.00;100335.72;688967;28;2519;-62
2023/10/03 01:12:19;;;;;;;17.73;8.90;;;;;;;18.67;100.00;100333.69;687893;28;1959;-63
2023/10/03 01:12:39;;;;;;;18.48;9.07;;;;;;;18.71;100.00;100328.16;688398;28;3604;-64
2023/10/03 01:13:10;;;;;;;19.63;9.47;;;;;;;18.71;100.00;100333.47;688959;28;4594;-62
2023/10/03 01:13:32;;;;;;;19.30;9.35;;;;;;;18.72;100.00;100337.84;690430;28;1739;-62
2023/10/03 01:13:57;;;;;;;19.70;9.50;;;;;;;18.71;100.00;100330.81;689023;28;2073;-61
2023/10/03 01:14:18;;;;;;;18.57;9.20;;;;;;;18.70;100.00;100331.75;688015;28;1363;-62
2023/10/03 01:14:41;;;;;;;19.08;9.60;;;;;;;18.68;100.00;100328.31;686768;28;1918;-61
2023/10/03 01:15:05;;;;;;;18.05;9.07;;;;;;;18.72;100.00;100327.25;689114;28;1220;-62
2023/10/03 01:15:28;;;;;;;17.83;9.27;;;;;;;18.78;100.00;100326.13;686400;28;2028;-63
2023/10/03 01:15:50;;;;;;;18.02;9.30;;;;;;;18.76;100.00;100333.28;690579;28;1338;-61
2023/10/03 01:16:12;;;;;;;18.20;9.38;;;;;;;18.76;100.00;100332.41;689423;28;4995;-61
2023/10/03 01:16:34;;;;;;;19.00;9.35;;;;;;;18.84;100.00;100331.16;690650;28;2473;-63
2023/10/03 01:16:56;;;;;;;18.25;8.90;;;;;;;18.94;100.00;100326.34;691442;28;1385;-61
2023/10/03 01:17:18;;;;;;;18.52;9.13;;;;;;;18.93;100.00;100329.91;688076;28;1129;-62
2023/10/03 01:17:38;;;;;;;18.73;8.80;;;;;;;19.03;100.00;100331.19;691702;28;1203;-63
2023/10/03 01:18:00;;;;;;;18.63;9.10;;;;;;;19.11;100.00;100324.72;690426;28;1388;-62
2023/10/03 01:18:27;;;;;;;18.88;9.27;;;;;;;19.12;100.00;100329.06;686699;28;1389;-62
2023/10/03 01:18:47;;;;;;;18.60;9.15;;;;;;;19.15;100.00;100324.50;689947;28;1215;-63
2023/10/03 01:19:13;;;;;;;17.00;8.60;;;;;;;19.17;100.00;100327.06;689771;28;4278;-62
2023/10/03 01:19:34;;;;;;;17.40;8.75;;;;;;;19.09;100.00;100323.91;689448;28;1061;-63
2023/10/03 01:19:56;;;;;;;18.20;9.13;;;;;;;19.03;100.00;100315.31;689496;28;1476;-61
2023/10/03 01:20:28;;;;;;;19.58;9.20;;;;;;;19.09;100.00;100323.91;692485;28;1413;-61
2023/10/03 01:20:52;;;;;;;19.23;8.77;;;;;;;19.09;100.00;100308.03;690528;28;1282;-62
2023/10/03 01:21:13;;;;;;;17.35;8.63;;;;;;;19.10;100.00;100315.03;690701;28;1266;-63
2023/10/03 01:21:34;;;;;;;17.85;9.18;;;;;;;19.05;100.00;100308.16;691448;28;1218;-62
2023/10/03 01:21:56;;;;;;;19.00;9.05;;;;;;;18.97;100.00;100312.94;691128;28;4551;-62
2023/10/03 01:22:17;;;;;;;18.20;8.80;;;;;;;18.93;100.00;100306.06;690911;28;1277;-61
2023/10/03 01:22:39;;;;;;;17.60;9.30;;;;;;;18.93;100.00;100310.50;690975;28;1209;-62
2023/10/03 01:23:06;;;;;;;18.80;9.65;;;;;;;18.95;100.00;100313.94;691456;28;1086;-63
2023/10/03 01:23:39;;;;;;;18.80;9.35;;;;;;;18.96;100.00;100313.88;690250;28;1140;-62
2023/10/03 01:24:02;;;;;;;18.73;9.32;;;;;;;18.94;100.00;100309.56;692052;28;1254;-63
2023/10/03 01:24:25;;;;;;;19.02;9.20;;;;;;;18.93;100.00;100308.72;690813;28;1093;-63
2023/10/03 01:24:45;;;;;;;18.80;9.30;;;;;;;18.91;100.00;100310.56;689744;28;1434;-63
2023/10/03 01:25:11;;;;;;;18.67;9.47;;;;;;;18.87;100.00;100304.56;684592;28;4382;-63
2023/10/03 01:25:34;;;;;;;18.52;9.57;;;;;;;18.88;100.00;100303.66;684839;28;1089;-62
2023/10/03 01:25:54;;;;;;;18.45;9.63;;;;;;;18.93;100.00;100307.84;686507;28;1302;-62
2023/10/03 01:26:15;;;;;;;19.15;9.15;;;;;;;18.96;100.00;100305.94;686385;28;1342;-62
2023/10/03 01:26:36;;;;;;;19.58;9.68;;;;;;;18.97;100.00;100309.41;686936;28;1134;-62
2023/10/03 01:26:56;;;;;;;18.43;9.70;;;;;;;18.94;100.00;100305.16;690865;28;1215;-61
2023/10/03 01:27:16;;;;;;;19.90;9.68;;;;;;;18.93;100.00;100308.72;691866;28;1252;-63
2023/10/03 01:27:37;;;;;;;19.00;9.60;;;;;;;18.88;100.00;100301.00;688085;28;1324;-62
2023/10/03 01:27:57;;;;;;;18.30;9.00;;;;;;;18.91;100.00;100315.00;688466;28;4269;-62
2023/10/03 01:28:18;;;;;;;19.17;9.17;;;;;;;18.92;100.00;100307.00;688507;28;1310;-63
2023/10/03 01:28:38;;;;;;;18.63;9.25;;;;;;;18.97;100.00;100310.31;689147;28;1217;-63
2023/10/03 01:28:59;;;;;;;19.73;9.33;;;;;;;18.95;100.00;100308.66;689100;28;1330;-62
2023/10/03 01:29:20;;;;;;;19.10;9.63;;;;;;;18.90;100.00;100308.88;687968;28;1219;-62
2023/10/03 01:29:40;;;;;;;20.17;9.77;;;;;;;18.89;100.00;100304.50;685693;28;1427;-62
2023/10/03 01:30:01;;;;;;;19.93;9.70;;;;;;;18.88;100.00;100313.34;685350;28;1457;-61
2023/10/03 01:30:21;;;;;;;17.98;9.32;;;;;;;18.85;100.00;100305.53;685355;28;1482;-61
2023/10/03 01:30:42;;;;;;;17.77;9.30;;;;;;;18.85;100.00;100305.53;683276;28;1465;-61
2023/10/03 01:31:03;;;;;;;18.40;9.00;;;;;;;18.84;100.00;100309.97;681910;28;4624;-63
2023/10/03 01:31:23;;;;;;;19.30;9.53;;;;;;;18.87;100.00;100316.88;682812;28;1537;-63
2023/10/03 01:31:44;;;;;;;19.88;9.93;;;;;;;18.85;100.00;100313.47;689545;28;1445;-62
2023/10/03 01:32:06;;;;;;;19.73;9.83;;;;;;;18.83;100.00;100310.00;689140;28;1212;-62
2023/10/03 01:32:30;;;;;;;19.10;9.25;;;;;;;18.85;100.00;100313.47;685639;28;1007;-62
2023/10/03 01:32:56;;;;;;;18.45;8.85;;;;;;;18.87;100.00;100308.94;684105;28;1275;-62
2023/10/03 01:33:16;;;;;;;18.30;9.00;;;;;;;18.86;100.00;100309.91;684802;28;1078;-63
2023/10/03 01:33:37;;;;;;;17.38;8.43;;;;;;;18.88;100.00;100303.66;684338;28;2036;-62
2023/10/03 01:33:59;;;;;;;17.47;8.63;;;;;;;18.91;100.00;100299.13;685891;28;4376;-62
2023/10/03 01:34:20;;;;;;;17.98;9.52;;;;;;;18.91;100.00;100304.41;687117;28;1421;-62
2023/10/03 01:34:40;;;;;;;17.85;9.32;;;;;;;18.89;100.00;100301.84;689616;28;1915;-62
2023/10/03 01:35:07;;;;;;;18.63;9.00;;;;;;;18.88;100.00;100302.75;692643;28;1323;-62
2023/10/03 01:35:28;;;;;;;17.33;9.15;;;;;;;18.92;100.00;100303.50;690638;28;1120;-61
2023/10/03 01:35:48;;;;;;;16.67;9.10;;;;;;;18.91;100.00;100299.13;690436;28;1268;-61
2023/10/03 01:36:10;;;;;;;18.60;9.43;;;;;;;18.88;100.00;100293.03;690120;28;1154;-62
2023/10/03 01:36:31;;;;;;;17.70;9.07;;;;;;;18.90;100.00;100298.28;687444;28;1159;-61
2023/10/03 01:36:52;;;;;;;17.67;8.85;;;;;;;18.96;100.00;100294.47;687085;28;4387;-62
2023/10/03 01:37:14;;;;;;;18.30;8.88;;;;;;;18.96;100.00;100297.97;687442;28;1996;-62
2023/10/03 01:37:34;;;;;;;17.98;9.23;;;;;;;19.01;100.00;100292.47;687572;28;1133;-61
2023/10/03 01:37:54;;;;;;;18.35;9.10;;;;;;;19.13;100.00;100299.84;688179;28;1260;-63
2023/10/03 01:38:15;;;;;;;18.63;9.17;;;;;;;19.11;100.00;100295.56;688312;28;1227;-61
2023/10/03 01:38:36;;;;;;;18.20;9.30;;;;;;;19.09;100.00;100292.13;687543;28;1059;-61
2023/10/03 01:38:57;;;;;;;18.38;9.40;;;;;;;19.11;100.00;100284.97;688361;28;5120;-62
2023/10/03 01:39:17;;;;;;;19.65;9.45;;;;;;;19.11;100.00;100296.41;687527;28;1533;-61
2023/10/03 01:39:38;;;;;;;18.90;9.30;;;;;;;19.07;100.00;100286.06;688575;28;1224;-60
2023/10/03 01:39:58;;;;;;;18.90;8.97;;;;;;;19.11;100.00;100295.56;686329;28;4365;-63
2023/10/03 01:40:20;;;;;;;19.20;9.05;;;;;;;19.15;100.00;100289.19;688434;28;1457;-64
2023/10/03 01:40:40;;;;;;;19.05;9.02;;;;;;;19.18;100.00;100289.06;690398;28;1380;-62
2023/10/03 01:41:01;;;;;;;19.73;9.38;;;;;;;19.20;100.00;100295.13;688528;28;1470;-62
2023/10/03 01:41:21;;;;;;;18.93;9.10;;;;;;;19.20;100.00;100295.13;688105;28;1234;-63
2023/10/03 01:41:42;;;;;;;18.00;9.48;;;;;;;19.14;100.00;100287.47;688563;28;1421;-62
2023/10/03 01:42:04;;;;;;;19.45;9.45;;;;;;;19.14;100.00;100290.13;686190;28;1522;-62
2023/10/03 01:42:25;;;;;;;20.83;9.52;;;;;;;19.18;100.00;100283.75;686443;28;1296;-63
2023/10/03 01:42:48;;;;;;;18.80;9.23;;;;;;;19.21;100.00;100286.25;688763;28;1776;-63